< < Back
Terminal Aerodrome Forecast


Current Version              Previous Versions:   1  2  3  4  5  6  7  8  9  

Terminal Aerodrome Forecast

993
FTUS42 KCHS 221720
TAFCHS
TAF
KCHS 221720Z 2218/2318 04009KT P6SM SCT045
     FM230000 06004KT P6SM SKC
     FM231400 10012KT P6SM FEW050=

Latest METAR

032
SAUS80 KWBC 230500
MTRCHS
METAR KCHS 230456Z 04003KT 10SM CLR 17/16 A3027 RMK AO2 SLP248 T01720156
402610172


USA.gov is the U.S. government's official web portal to all federal, state and local government web resources and services.